This is the latest recevied weather packets stored in our database for station/object KF4KUL. If no packets are shown the sender has not sent any weather packets the latest 10 day(s).
| Time | Temp. | Humidity | Pressure | Rain* | Wind** | Luminosity | Snow |
|---|---|---|---|---|---|---|---|
| 1777490644 | 31.11° C | 55% | 1014.4 hPa | 0 mm | - | - | - |
| 1777489743 | 31.11° C | 53% | 1014.7 hPa | 0 mm | - | - | - |
| 1777488842 | 31.11° C | 52% | 1015 hPa | 0 mm | - | - | - |
| 1777487941 | 31.67° C | 51% | 1015.3 hPa | 0 mm | - | - | - |
| 1777487040 | 30.56° C | 49% | 1015.4 hPa | 0 mm | - | - | - |
| 1777486139 | 30.56° C | 48% | 1015.4 hPa | 0 mm | - | - | - |
| 1777485238 | 30.56° C | 46% | 1015.6 hPa | 0 mm | - | - | - |
| 1777484337 | 30° C | 48% | 1015.7 hPa | 0 mm | - | - | - |
| 1777483436 | 31.11° C | 46% | 1016.1 hPa | 0 mm | - | - | - |
| 1777482535 | 30.56° C | 47% | 1016 hPa | 0 mm | - | - | - |
| 1777481634 | 30.56° C | 51% | 1016.4 hPa | 0 mm | - | - | - |
| 1777480733 | 30° C | 53% | 1016.6 hPa | 0 mm | - | - | - |
| 1777479832 | 30° C | 53% | 1016.6 hPa | 0 mm | - | - | - |
| 1777478931 | 30° C | 53% | 1016.9 hPa | 0 mm | - | - | - |
| 1777478030 | 28.89° C | 55% | 1016.9 hPa | 0 mm | - | - | - |
| 1777477129 | 29.44° C | 56% | 1017.2 hPa | 0 mm | - | - | - |
| 1777476228 | 28.33° C | 58% | 1017.4 hPa | 0 mm | - | - | - |
| 1777475327 | 28.89° C | 57% | 1017.5 hPa | 0 mm | - | - | - |
| 1777474426 | 28.33° C | 61% | 1017.3 hPa | 0 mm | - | - | - |
| 1777473526 | 27.78° C | 64% | 1017.3 hPa | 0 mm | - | - | - |
| 1777472624 | 27.22° C | 65% | 1017.3 hPa | 0 mm | - | - | - |
| 1777471723 | 26.67° C | 68% | 1017.4 hPa | 0 mm | - | - | - |
| 1777470822 | 25.56° C | 73% | 1017.5 hPa | 0 mm | - | - | - |
| 1777469921 | 24.44° C | 79% | 1017.5 hPa | 0 mm | - | - | - |
| 1777469020 | 23.33° C | 84% | 1017.6 hPa | 0 mm | - | - | - |
* Rain latest hour (hover to see other rain measurements)
** Current wind speed in m/s (hover to see current wind gust speed)